Time;durP1;ratioP1;P1;durP2;ratioP2;P2;SDS_P1;SDS_P2;PMS_P1;PMS_P2;Temp;Humidity;BMP_temperature;BMP_pressure;BME280_temperature;BME280_humidity;BME280_pressure;Samples;Min_cycle;Max_cycle;Signal;HPM_P1;HPM_P2
2024/01/21 00:04:20;;;;;;;6.22;4.47;;;;;;;1.01;100.00;102461.88;10198212;28;20049;-70
2024/01/21 00:09:17;;;;;;;6.18;4.70;;;;;;;1.00;100.00;102454.84;10198258;28;20061;-71
2024/01/21 00:14:13;;;;;;;6.03;4.40;;;;;;;0.93;100.00;102451.34;10198622;28;20062;-70
2024/01/21 00:19:10;;;;;;;9.80;4.47;;;;;;;0.92;100.00;102446.97;10198051;28;20046;-70
2024/01/21 00:24:06;;;;;;;6.65;4.78;;;;;;;0.87;100.00;102454.03;10197950;28;20544;-70
2024/01/21 00:29:03;;;;;;;8.52;5.20;;;;;;;0.74;100.00;102434.19;10197529;28;20042;-70
2024/01/21 00:33:59;;;;;;;5.25;4.25;;;;;;;0.66;100.00;102431.72;10197549;28;20116;-70
2024/01/21 00:38:56;;;;;;;7.15;4.03;;;;;;;0.55;100.00;102429.66;10196909;28;20053;-70
2024/01/21 00:43:52;;;;;;;5.32;4.05;;;;;;;0.46;100.00;102420.94;10196468;28;20245;-70
2024/01/21 00:48:49;;;;;;;7.80;4.22;;;;;;;0.38;100.00;102407.72;10196714;28;20045;-71
2024/01/21 00:53:45;;;;;;;6.63;4.10;;;;;;;0.32;100.00;102408.53;10195932;28;20046;-70
2024/01/21 00:58:42;;;;;;;4.78;3.72;;;;;;;0.33;100.00;102399.47;10197099;28;20050;-70
2024/01/21 01:03:39;;;;;;;4.88;4.03;;;;;;;0.36;100.00;102409.78;10196171;28;20655;-70
2024/01/21 01:08:35;;;;;;;6.97;4.20;;;;;;;0.30;100.00;102391.78;10196294;28;20053;-70
2024/01/21 01:13:32;;;;;;;5.32;3.78;;;;;;;0.33;100.00;102391.38;10195860;28;20068;-70
2024/01/21 01:18:28;;;;;;;6.60;3.67;;;;;;;0.30;100.00;102394.47;10196076;28;20386;-70
2024/01/21 01:23:25;;;;;;;5.15;3.83;;;;;;;0.16;100.00;102399.88;10195631;28;20651;-70
2024/01/21 01:28:21;;;;;;;5.95;3.88;;;;;;;0.19;100.00;102388.69;10194648;28;20068;-70
2024/01/21 01:33:18;;;;;;;7.43;4.18;;;;;;;0.10;100.00;102381.03;10195748;28;20058;-70
2024/01/21 01:38:14;;;;;;;6.00;3.97;;;;;;;0.15;100.00;102379.38;10195009;28;20054;-71
2024/01/21 01:43:11;;;;;;;5.25;3.70;;;;;;;0.22;100.00;102374.00;10195903;28;20060;-70
2024/01/21 01:48:07;;;;;;;4.47;3.72;;;;;;;0.26;100.00;102369.03;10186918;28;20050;-71
2024/01/21 01:53:04;;;;;;;6.30;4.00;;;;;;;0.33;100.00;102367.16;10194935;28;20104;-70
2024/01/21 01:58:01;;;;;;;5.40;3.42;;;;;;;0.35;100.00;102354.34;10193717;28;20742;-70
2024/01/21 02:02:58;;;;;;;7.85;3.92;;;;;;;0.36;100.00;102339.84;10194920;28;20045;-70
2024/01/21 02:07:55;;;;;;;5.07;3.90;;;;;;;0.31;100.00;102336.94;10191801;28;20564;-70
2024/01/21 02:12:53;;;;;;;6.03;3.72;;;;;;;0.25;100.00;102337.78;10193006;28;20697;-70
2024/01/21 02:17:50;;;;;;;5.95;3.90;;;;;;;0.18;100.00;102340.47;10193240;28;20052;-70
2024/01/21 02:22:47;;;;;;;6.93;4.30;;;;;;;0.09;100.00;102339.03;10192897;28;20053;-71
2024/01/21 02:27:43;;;;;;;8.00;4.03;;;;;;;0.08;100.00;102337.38;10192940;28;20050;-70
2024/01/21 02:32:40;;;;;;;7.40;4.70;;;;;;;0.07;100.00;102341.09;10192359;28;20049;-70
2024/01/21 02:37:36;;;;;;;6.13;4.00;;;;;;;0.08;100.00;102343.59;10192021;28;20108;-71
2024/01/21 02:42:33;;;;;;;6.88;4.47;;;;;;;0.05;100.00;102338.63;10193177;28;20049;-70
2024/01/21 02:47:29;;;;;;;4.50;3.58;;;;;;;0.04;100.00;102331.59;10191517;28;20042;-70
2024/01/21 02:52:26;;;;;;;5.25;4.20;;;;;;;-0.03;100.00;102320.00;10191862;28;20046;-70
2024/01/21 02:57:22;;;;;;;7.03;4.25;;;;;;;-0.07;100.00;102308.00;10192036;28;20104;-71
2024/01/21 03:02:19;;;;;;;5.90;4.25;;;;;;;-0.22;100.00;102300.16;10191874;28;20116;-70
2024/01/21 03:07:15;;;;;;;7.07;4.30;;;;;;;-0.28;100.00;102299.13;10191532;28;20045;-70
2024/01/21 03:12:12;;;;;;;5.57;4.03;;;;;;;-0.19;100.00;102293.53;10196725;28;20058;-70
2024/01/21 03:17:09;;;;;;;8.07;4.47;;;;;;;-0.12;100.00;102297.88;10199578;28;20120;-70
2024/01/21 03:22:05;;;;;;;7.45;4.07;;;;;;;-0.13;100.00;102292.72;10200717;28;20046;-70
2024/01/21 03:27:02;;;;;;;7.78;4.53;;;;;;;-0.20;100.00;102289.22;10198615;28;20042;-70
2024/01/21 03:31:58;;;;;;;6.38;4.18;;;;;;;-0.18;100.00;102289.84;10199207;28;20080;-70
2024/01/21 03:36:55;;;;;;;6.47;4.40;;;;;;;-0.30;100.00;102282.38;10199470;28;20073;-71
2024/01/21 03:41:51;;;;;;;8.43;5.05;;;;;;;-0.47;100.00;102273.06;10198892;28;20045;-70
2024/01/21 03:46:48;;;;;;;11.75;4.47;;;;;;;-0.58;100.00;102262.91;10195431;28;20046;-70
2024/01/21 03:51:44;;;;;;;9.70;4.68;;;;;;;-0.78;100.00;102269.09;10191585;28;20058;-71
2024/01/21 03:56:41;;;;;;;6.50;4.55;;;;;;;-0.61;100.00;102263.34;10198992;28;20053;-71
2024/01/21 04:01:44;;;;;;;6.03;4.28;;;;;;;-0.62;100.00;102257.16;10190956;28;20058;-71
2024/01/21 04:06:42;;;;;;;6.70;4.50;;;;;;;-0.62;100.00;102250.97;10198229;28;20116;-70
2024/01/21 04:11:45;;;;;;;8.95;4.65;;;;;;;-0.57;100.00;102240.41;10198664;28;20057;-71
2024/01/21 04:16:41;;;;;;;;;;;;;;;-0.53;100.00;102233.59;10198485;28;20060;-71
2024/01/21 04:21:37;;;;;;;9.20;4.70;;;;;;;-0.58;100.00;102225.31;10198066;28;19933;-71
2024/01/21 04:26:34;;;;;;;7.65;5.00;;;;;;;-0.66;100.00;102213.75;10194732;28;20163;-71
2024/01/21 04:31:31;;;;;;;9.38;5.13;;;;;;;-0.69;100.00;102198.03;10197916;28;20096;-70
2024/01/21 04:36:27;;;;;;;8.48;4.78;;;;;;;-0.66;100.00;102169.94;10196991;28;20140;-71
2024/01/21 04:41:24;;;;;;;7.40;4.88;;;;;;;-0.65;100.00;102155.47;10189495;28;20049;-70
2024/01/21 04:46:20;;;;;;;10.95;5.20;;;;;;;-0.57;100.00;102149.06;10194711;28;20048;-70
2024/01/21 04:51:17;;;;;;;7.57;4.93;;;;;;;-0.53;100.00;102147.63;10191763;28;20054;-71
2024/01/21 04:56:17;;;;;;;6.53;4.03;;;;;;;-0.41;100.00;102142.44;10196835;28;20519;-70
2024/01/21 05:01:15;;;;;;;7.00;5.10;;;;;;;-0.34;100.00;102136.00;10196714;28;20057;-71
2024/01/21 05:06:12;;;;;;;6.45;4.43;;;;;;;-0.25;100.00;102134.75;10188210;28;20100;-71
2024/01/21 05:11:08;;;;;;;6.88;4.18;;;;;;;-0.19;100.00;102148.38;10188040;28;20199;-71
2024/01/21 05:16:05;;;;;;;5.90;4.00;;;;;;;-0.05;100.00;102140.06;10195986;28;20054;-71
2024/01/21 05:21:01;;;;;;;8.10;4.40;;;;;;;0.07;100.00;102116.03;10191585;28;20050;-71
2024/01/21 05:25:58;;;;;;;7.78;4.10;;;;;;;0.14;100.00;102092.63;10195268;28;20042;-71
2024/01/21 05:30:54;;;;;;;8.02;4.30;;;;;;;0.29;100.00;102096.88;10196165;28;20049;-71
2024/01/21 05:35:51;;;;;;;4.97;4.03;;;;;;;0.40;100.00;102082.75;10194290;28;20101;-72
2024/01/21 05:40:47;;;;;;;4.90;4.10;;;;;;;0.49;100.00;102069.84;10195687;28;20057;-71
2024/01/21 05:45:44;;;;;;;6.47;4.38;;;;;;;0.48;100.00;102058.25;10194153;28;20417;-71
2024/01/21 05:50:40;;;;;;;5.15;3.90;;;;;;;0.56;100.00;102052.63;10195397;28;20056;-71
2024/01/21 05:55:37;;;;;;;5.28;4.18;;;;;;;0.61;100.00;102051.97;10193985;28;20058;-71
2024/01/21 06:00:33;;;;;;;6.32;3.88;;;;;;;0.57;100.00;102040.81;10194608;28;20085;-71
2024/01/21 06:05:30;;;;;;;5.50;3.75;;;;;;;0.69;100.00;102029.31;10191994;28;20049;-70
2024/01/21 06:10:27;;;;;;;4.88;3.53;;;;;;;0.68;100.00;102025.81;10194427;28;20048;-70
2024/01/21 06:15:23;;;;;;;5.78;4.18;;;;;;;0.67;100.00;102018.78;10192727;28;20053;-71
2024/01/21 06:20:20;;;;;;;4.20;3.75;;;;;;;0.67;100.00;102001.81;10193570;28;20124;-71
2024/01/21 06:25:17;;;;;;;6.15;3.60;;;;;;;0.68;100.00;101990.81;10193742;28;20054;-71
2024/01/21 06:30:14;;;;;;;6.65;3.70;;;;;;;0.68;100.00;101987.31;10193170;28;20081;-71
2024/01/21 06:35:11;;;;;;;5.85;3.88;;;;;;;0.62;100.00;101992.50;10192458;28;20054;-71
2024/01/21 06:40:11;;;;;;;4.82;3.88;;;;;;;0.61;100.00;101974.72;10193527;28;20046;-71
2024/01/21 06:45:07;;;;;;;4.60;3.58;;;;;;;0.67;100.00;101964.94;10191022;28;20046;-71
2024/01/21 06:50:05;;;;;;;4.32;3.65;;;;;;;0.64;100.00;101965.38;10193032;28;20046;-71
2024/01/21 06:55:02;;;;;;;6.22;3.83;;;;;;;0.70;99.40;101966.38;10192341;28;20049;-71
2024/01/21 06:59:58;;;;;;;4.88;3.67;;;;;;;0.70;98.47;101953.75;10193258;28;20046;-71
2024/01/21 07:04:55;;;;;;;5.88;3.53;;;;;;;0.72;98.28;101956.19;10191478;28;20589;-71
2024/01/21 07:09:51;;;;;;;5.50;3.20;;;;;;;0.71;97.94;101939.22;10192992;28;20060;-71
2024/01/21 07:14:50;;;;;;;5.60;3.95;;;;;;;0.75;95.88;101939.63;10191447;28;20133;-71
2024/01/21 07:19:47;;;;;;;4.57;3.80;;;;;;;0.80;94.40;101937.06;10192421;28;20045;-71
2024/01/21 07:24:43;;;;;;;5.53;3.85;;;;;;;0.80;94.30;101931.69;10191276;28;20050;-71
2024/01/21 07:29:40;;;;;;;4.35;3.53;;;;;;;0.82;93.35;101922.34;10180836;28;20107;-71
2024/01/21 07:34:37;;;;;;;4.32;3.72;;;;;;;0.82;92.38;101905.38;10191387;28;20068;-72
2024/01/21 07:39:34;;;;;;;7.70;4.03;;;;;;;0.84;92.92;101911.34;10191691;28;20052;-71
2024/01/21 07:44:30;;;;;;;4.30;3.75;;;;;;;0.84;94.62;101890.63;10191720;28;20052;-71
2024/01/21 07:49:27;;;;;;;6.93;4.07;;;;;;;0.92;92.24;101886.81;10191037;28;20042;-71
2024/01/21 07:54:23;;;;;;;5.25;4.10;;;;;;;0.93;92.23;101893.84;10190445;28;20057;-71
2024/01/21 07:59:20;;;;;;;4.47;4.00;;;;;;;0.90;93.61;101878.13;10198410;28;20073;-71
2024/01/21 08:04:16;;;;;;;5.47;4.03;;;;;;;0.88;96.14;101869.44;10198604;28;20053;-71
2024/01/21 08:09:13;;;;;;;8.82;3.85;;;;;;;0.88;94.99;101853.28;10198677;28;20046;-72
2024/01/21 08:14:12;;;;;;;4.30;3.90;;;;;;;0.92;95.39;101841.03;10197398;28;20046;-71
2024/01/21 08:19:08;;;;;;;6.55;4.40;;;;;;;0.91;95.24;101831.31;10198240;28;20058;-71
2024/01/21 08:24:05;;;;;;;5.72;4.32;;;;;;;1.00;93.36;101835.34;10179535;28;20501;-71
2024/01/21 08:29:02;;;;;;;6.15;4.50;;;;;;;1.03;93.44;101805.25;10198396;28;20109;-71
2024/01/21 08:33:58;;;;;;;4.03;3.65;;;;;;;1.04;94.24;101777.28;10179434;28;20081;-71
2024/01/21 08:38:55;;;;;;;6.60;4.35;;;;;;;1.13;94.14;101758.91;10197701;28;20571;-71
2024/01/21 08:43:51;;;;;;;5.20;4.22;;;;;;;1.21;92.12;101744.31;10196865;28;20587;-71
2024/01/21 08:48:48;;;;;;;5.18;4.07;;;;;;;1.28;91.27;101728.88;10196903;28;20054;-71
2024/01/21 08:53:44;;;;;;;6.30;4.50;;;;;;;1.39;90.61;101746.94;10196715;28;20096;-71
2024/01/21 08:58:41;;;;;;;7.13;4.60;;;;;;;1.51;86.92;101775.78;10196192;28;20044;-72
2024/01/21 09:03:37;;;;;;;6.78;4.45;;;;;;;1.61;85.70;101786.81;10195712;28;20046;-70
2024/01/21 09:08:34;;;;;;;5.65;4.32;;;;;;;1.65;86.14;101782.63;10195011;28;20054;-71
2024/01/21 09:13:30;;;;;;;7.40;4.20;;;;;;;1.72;84.59;101742.03;10195899;28;20571;-71
2024/01/21 09:18:27;;;;;;;5.25;4.32;;;;;;;1.72;87.04;101732.09;10196092;28;20050;-72
2024/01/21 09:23:24;;;;;;;6.20;4.15;;;;;;;1.79;84.98;101735.50;10195039;28;20046;-70
2024/01/21 09:28:20;;;;;;;4.45;3.63;;;;;;;2.05;79.36;101726.09;10195704;28;20042;-71
2024/01/21 09:33:19;;;;;;;6.50;4.35;;;;;;;2.14;77.60;101715.78;10194786;28;20401;-71
2024/01/21 09:38:18;;;;;;;6.53;4.82;;;;;;;2.34;74.81;101714.56;10194802;28;20136;-71
2024/01/21 09:43:15;;;;;;;10.30;4.78;;;;;;;2.47;74.43;101728.63;10194487;28;20061;-71
2024/01/21 09:48:11;;;;;;;8.18;4.13;;;;;;;2.62;72.33;101722.72;10194853;28;20049;-71
2024/01/21 09:53:08;;;;;;;5.25;4.10;;;;;;;2.67;70.63;101752.53;10194100;28;20093;-70
2024/01/21 09:58:07;;;;;;;5.05;4.55;;;;;;;2.72;70.95;101760.72;10194710;28;20418;-71
2024/01/21 10:03:03;;;;;;;4.40;4.00;;;;;;;2.72;71.43;101760.72;10194102;28;20042;-71
2024/01/21 10:08:00;;;;;;;5.22;4.40;;;;;;;2.73;71.06;101746.13;10193268;28;20046;-71
2024/01/21 10:12:56;;;;;;;5.10;4.55;;;;;;;2.67;72.62;101741.72;10194358;28;20073;-71
2024/01/21 10:17:53;;;;;;;5.03;4.53;;;;;;;2.65;73.87;101722.22;10192624;28;20073;-71
2024/01/21 10:22:50;;;;;;;6.45;4.60;;;;;;;2.66;72.85;101704.97;10193657;28;20058;-71
2024/01/21 10:27:52;;;;;;;5.90;4.28;;;;;;;2.70;73.23;101702.59;10192413;28;20054;-71
2024/01/21 10:32:49;;;;;;;5.30;4.45;;;;;;;2.74;73.53;101710.00;10193006;28;20417;-71
2024/01/21 10:37:46;;;;;;;5.55;4.40;;;;;;;2.76;74.87;101680.00;10192913;28;20053;-71
2024/01/21 10:42:44;;;;;;;5.65;4.63;;;;;;;2.79;75.46;101697.66;10189032;28;20573;-71
2024/01/21 10:47:43;;;;;;;7.25;4.28;;;;;;;2.84;74.70;101700.44;10193037;28;20425;-72
2024/01/21 10:52:44;;;;;;;5.45;4.32;;;;;;;2.89;75.78;101700.53;10192247;28;20104;-71
2024/01/21 10:57:42;;;;;;;7.63;4.60;;;;;;;2.94;75.68;101698.72;10192750;28;20054;-71
2024/01/21 11:02:39;;;;;;;5.30;4.38;;;;;;;3.07;75.41;101676.00;10192753;28;20050;-71
2024/01/21 11:07:37;;;;;;;7.60;4.85;;;;;;;3.19;75.56;101648.09;10191788;28;20069;-71
2024/01/21 11:12:34;;;;;;;5.38;4.03;;;;;;;3.28;75.67;101649.31;10192973;28;20072;-72
2024/01/21 11:17:32;;;;;;;6.68;4.43;;;;;;;3.39;78.17;101651.13;10191453;28;20053;-72
2024/01/21 11:22:28;;;;;;;5.35;4.68;;;;;;;3.38;75.35;101642.16;10193004;28;20108;-71
2024/01/21 11:27:26;;;;;;;5.72;4.90;;;;;;;3.35;76.68;101660.78;10191329;28;20045;-71
2024/01/21 11:32:28;;;;;;;5.03;4.47;;;;;;;3.39;78.45;101645.72;10195412;28;20052;-71
2024/01/21 11:37:27;;;;;;;5.32;4.30;;;;;;;3.42;77.63;101645.22;10199732;28;20506;-71
2024/01/21 11:42:23;;;;;;;5.40;4.13;;;;;;;3.51;78.58;101643.72;10199742;28;20406;-71
2024/01/21 11:47:20;;;;;;;6.28;4.95;;;;;;;3.50;79.92;101652.88;10199669;28;20049;-73
2024/01/21 11:52:17;;;;;;;5.78;4.57;;;;;;;3.53;80.04;101662.41;10198812;28;20049;-71
2024/01/21 11:57:13;;;;;;;6.13;4.57;;;;;;;3.54;81.23;101637.81;10198324;28;20106;-71
2024/01/21 12:02:11;;;;;;;9.95;5.18;;;;;;;3.59;83.30;101646.00;10199164;28;20054;-71
2024/01/21 12:07:09;;;;;;;5.90;4.88;;;;;;;3.58;84.76;101655.19;10192490;28;20074;-71
2024/01/21 12:12:08;;;;;;;7.88;5.43;;;;;;;3.66;88.52;101663.94;10189590;28;20048;-71
2024/01/21 12:17:07;;;;;;;7.85;5.43;;;;;;;3.71;91.28;101650.50;10191935;28;20091;-71
2024/01/21 12:22:04;;;;;;;8.65;5.45;;;;;;;3.84;92.86;101631.19;10176228;28;20104;-71
2024/01/21 12:27:01;;;;;;;6.55;5.32;;;;;;;3.87;95.32;101655.03;10194476;28;20054;-71
2024/01/21 12:31:57;;;;;;;10.77;6.30;;;;;;;3.93;95.42;101632.41;10188516;28;20049;-71
2024/01/21 12:36:56;;;;;;;7.40;5.40;;;;;;;4.01;95.01;101609.50;10194088;28;20046;-71
2024/01/21 12:41:53;;;;;;;9.77;5.03;;;;;;;3.98;95.22;101632.47;10187933;28;20046;-70
2024/01/21 12:46:49;;;;;;;7.45;5.68;;;;;;;3.95;95.67;101627.56;10189012;28;20049;-69
2024/01/21 12:51:46;;;;;;;6.57;5.68;;;;;;;3.95;96.39;101621.34;10187164;28;20061;-68
2024/01/21 12:56:42;;;;;;;7.78;5.82;;;;;;;3.87;98.54;101595.50;10194667;28;20054;-68
2024/01/21 13:01:40;;;;;;;6.65;5.70;;;;;;;3.98;100.00;101589.16;10193980;28;20050;-70
2024/01/21 13:06:36;;;;;;;7.25;5.53;;;;;;;3.99;100.00;101596.22;10192948;28;20054;-70
2024/01/21 13:11:33;;;;;;;7.90;5.72;;;;;;;4.03;100.00;101601.13;10194332;28;20045;-70
2024/01/21 13:16:30;;;;;;;9.00;6.13;;;;;;;3.99;100.00;101609.75;10190562;28;20058;-68
2024/01/21 13:21:27;;;;;;;7.25;5.70;;;;;;;4.08;100.00;101598.47;10189538;28;20072;-68
2024/01/21 13:26:25;;;;;;;10.30;6.20;;;;;;;4.04;100.00;101602.75;10180584;28;20049;-67
2024/01/21 13:31:21;;;;;;;11.55;5.18;;;;;;;4.05;100.00;101599.00;10189250;28;20096;-69
2024/01/21 13:36:19;;;;;;;7.68;5.50;;;;;;;4.07;100.00;101599.56;10186453;28;20072;-69
2024/01/21 13:41:16;;;;;;;8.00;5.95;;;;;;;4.05;100.00;101609.81;10188937;28;20069;-70
2024/01/21 13:46:13;;;;;;;9.88;6.22;;;;;;;4.02;100.00;101613.84;10174117;28;20050;-69
2024/01/21 13:51:12;;;;;;;7.75;6.25;;;;;;;4.03;100.00;101618.19;10181915;28;20069;-70
2024/01/21 13:56:09;;;;;;;6.80;5.50;;;;;;;4.03;100.00;101614.66;10184679;28;20053;-70
2024/01/21 14:01:06;;;;;;;9.82;5.53;;;;;;;4.02;100.00;101610.34;10189825;28;20038;-70
2024/01/21 14:06:03;;;;;;;5.88;5.03;;;;;;;3.99;100.00;101612.47;10185473;28;20053;-69
2024/01/21 14:10:59;;;;;;;8.18;5.80;;;;;;;3.93;100.00;101618.88;10188704;28;20520;-71
2024/01/21 14:15:56;;;;;;;9.07;5.55;;;;;;;3.96;100.00;101621.06;10189321;28;20049;-69
2024/01/21 14:20:52;;;;;;;8.20;6.18;;;;;;;3.98;100.00;101628.94;10183725;28;20045;-69
2024/01/21 14:25:54;;;;;;;7.32;5.60;;;;;;;4.00;100.00;101630.31;10190600;28;20048;-69
2024/01/21 14:30:50;;;;;;;8.38;5.82;;;;;;;3.98;100.00;101631.66;10185097;28;20113;-69
2024/01/21 14:35:47;;;;;;;7.60;5.80;;;;;;;3.96;100.00;101623.78;10188349;28;20522;-69
2024/01/21 14:40:44;;;;;;;8.50;5.75;;;;;;;3.94;100.00;101634.03;10190557;28;20057;-68
2024/01/21 14:45:43;;;;;;;8.70;6.15;;;;;;;3.91;100.00;101636.44;10183180;28;20069;-69
2024/01/21 14:50:39;;;;;;;8.73;6.45;;;;;;;3.92;100.00;101630.78;10179917;28;20588;-70
2024/01/21 14:55:37;;;;;;;7.75;6.22;;;;;;;3.94;100.00;101636.72;10190467;28;20124;-70
2024/01/21 15:00:33;;;;;;;8.85;6.10;;;;;;;3.89;100.00;101644.78;10188550;28;20045;-70
2024/01/21 15:05:30;;;;;;;14.07;6.75;;;;;;;3.86;100.00;101645.28;10186238;28;20124;-71
2024/01/21 15:10:26;;;;;;;8.38;6.22;;;;;;;3.82;100.00;101665.78;10190908;28;20517;-69
2024/01/21 15:15:29;;;;;;;9.63;6.45;;;;;;;3.78;100.00;101643.00;10188957;28;20049;-70
2024/01/21 15:20:27;;;;;;;10.90;7.55;;;;;;;3.75;100.00;101640.81;10190706;28;20053;-70
2024/01/21 15:25:28;;;;;;;10.45;7.55;;;;;;;3.80;100.00;101635.47;10188528;28;20090;-71
2024/01/21 15:30:24;;;;;;;9.27;7.75;;;;;;;3.80;100.00;101646.28;10182571;28;20042;-70
2024/01/21 15:35:21;;;;;;;11.88;8.05;;;;;;;3.80;100.00;101646.28;10175786;28;20067;-70
2024/01/21 15:40:18;;;;;;;13.55;7.80;;;;;;;3.75;100.00;101643.50;10180229;28;20077;-69
2024/01/21 15:45:14;;;;;;;9.20;7.82;;;;;;;3.77;100.00;101630.56;10183372;28;20433;-69
2024/01/21 15:50:11;;;;;;;9.80;7.70;;;;;;;3.74;100.00;101628.38;10188436;28;20460;-68
2024/01/21 15:55:09;;;;;;;12.10;9.05;;;;;;;3.62;100.00;101644.72;10186699;28;20082;-68
2024/01/21 16:00:07;;;;;;;11.55;7.80;;;;;;;3.70;100.00;101629.94;10186212;28;20050;-69
2024/01/21 16:05:04;;;;;;;12.88;9.40;;;;;;;3.69;100.00;101620.16;10186333;28;20133;-69
2024/01/21 16:10:00;;;;;;;11.63;8.48;;;;;;;3.71;100.00;101631.56;10180519;28;20096;-68
2024/01/21 16:14:57;;;;;;;13.27;8.43;;;;;;;3.71;100.00;101632.41;10182476;28;20046;-69
2024/01/21 16:19:54;;;;;;;14.48;9.57;;;;;;;3.73;100.00;101634.81;10182238;28;20477;-68
2024/01/21 16:24:50;;;;;;;13.50;9.32;;;;;;;3.74;100.00;101626.47;10189663;28;20068;-69
2024/01/21 16:29:47;;;;;;;11.40;8.88;;;;;;;3.79;100.00;101631.13;10192188;28;20660;-69
2024/01/21 16:34:43;;;;;;;13.50;9.55;;;;;;;3.77;100.00;101625.16;10193150;28;20126;-68
2024/01/21 16:39:55;;;;;;;11.50;8.85;;;;;;;3.76;100.00;101640.56;10187001;28;20085;-68
2024/01/21 16:44:52;;;;;;;13.25;10.27;;;;;;;3.74;100.00;101642.72;10193353;28;20053;-69
2024/01/21 16:49:48;;;;;;;13.48;10.48;;;;;;;3.75;100.00;101643.50;10194038;28;20584;-68
2024/01/21 16:54:45;;;;;;;15.27;10.95;;;;;;;3.80;100.00;101624.66;10186704;28;20133;-69
2024/01/21 16:59:42;;;;;;;12.48;9.90;;;;;;;3.83;100.00;101621.47;10194771;28;20095;-68
2024/01/21 17:04:39;;;;;;;15.18;10.77;;;;;;;3.82;100.00;101619.81;10192838;28;20065;-69
2024/01/21 17:09:36;;;;;;;14.60;11.57;;;;;;;3.81;100.00;101604.66;10195012;28;20050;-69
2024/01/21 17:14:32;;;;;;;14.23;11.80;;;;;;;3.84;100.00;101614.16;10191465;28;20082;-69
2024/01/21 17:19:29;;;;;;;16.33;12.70;;;;;;;3.82;100.00;101617.09;10189207;28;20050;-69
2024/01/21 17:24:25;;;;;;;15.38;13.10;;;;;;;3.82;100.00;101598.16;10172354;28;20060;-67
2024/01/21 17:29:22;;;;;;;15.57;12.88;;;;;;;3.85;100.00;101588.72;10182494;28;20054;-69
2024/01/21 17:34:19;;;;;;;15.63;13.43;;;;;;;3.87;100.00;101571.16;10187812;28;20046;-70
2024/01/21 17:39:16;;;;;;;14.48;12.95;;;;;;;3.85;100.00;101573.31;10185366;28;20053;-70
2024/01/21 17:44:13;;;;;;;15.43;13.82;;;;;;;3.84;100.00;101571.69;10189811;28;20452;-70
2024/01/21 17:49:09;;;;;;;14.35;12.60;;;;;;;3.83;100.00;101564.66;10184809;28;20121;-71
2024/01/21 17:54:06;;;;;;;14.60;13.10;;;;;;;3.89;100.00;101596.09;10189697;28;20042;-71
2024/01/21 17:59:03;;;;;;;15.30;12.90;;;;;;;3.89;100.00;101582.56;10188795;28;20045;-71
2024/01/21 18:03:59;;;;;;;13.27;11.95;;;;;;;3.88;100.00;101589.06;10189561;28;20042;-70
2024/01/21 18:08:56;;;;;;;17.95;13.68;;;;;;;3.88;100.00;101604.47;10190116;28;20042;-70
2024/01/21 18:13:52;;;;;;;16.13;14.15;;;;;;;3.87;100.00;101590.09;10187886;28;20124;-72
2024/01/21 18:18:53;;;;;;;15.73;13.43;;;;;;;3.85;100.00;101589.53;10180704;28;20041;-70
2024/01/21 18:23:50;;;;;;;15.90;13.80;;;;;;;3.84;100.00;101598.72;10180427;28;20414;-72
2024/01/21 18:28:47;;;;;;;15.60;13.68;;;;;;;3.90;100.00;101602.31;10189162;28;20057;-69
2024/01/21 18:33:50;;;;;;;16.90;13.07;;;;;;;3.91;100.00;101587.72;10179653;28;20046;-72
2024/01/21 18:38:47;;;;;;;15.80;14.13;;;;;;;3.89;100.00;101579.84;10179803;28;20096;-69
2024/01/21 18:43:43;;;;;;;14.98;13.43;;;;;;;3.91;100.00;101583.13;10189223;28;20437;-69
2024/01/21 18:48:40;;;;;;;15.75;13.50;;;;;;;3.90;100.00;101570.69;10186840;28;20386;-72
2024/01/21 18:53:37;;;;;;;17.55;14.10;;;;;;;3.90;100.00;101559.88;10188592;28;20540;-69
2024/01/21 18:58:34;;;;;;;16.70;14.32;;;;;;;3.95;100.00;101553.69;10186625;28;20044;-69
2024/01/21 19:03:30;;;;;;;17.50;14.25;;;;;;;3.87;100.00;101538.69;10183819;28;20076;-72
2024/01/21 19:08:27;;;;;;;19.40;15.43;;;;;;;3.91;100.00;101547.97;10180122;28;20768;-70
2024/01/21 19:13:24;;;;;;;19.25;14.90;;;;;;;3.89;100.00;101520.34;10190643;28;20073;-69
2024/01/21 19:18:21;;;;;;;23.88;15.48;;;;;;;3.94;100.00;101533.91;10184537;28;20053;-70
2024/01/21 19:23:17;;;;;;;24.65;15.95;;;;;;;3.91;100.00;101518.19;10186711;28;20037;-69
2024/01/21 19:28:14;;;;;;;17.92;15.00;;;;;;;3.94;100.00;101523.09;10182568;28;20108;-70
2024/01/21 19:33:10;;;;;;;16.52;14.75;;;;;;;3.94;100.00;101517.69;10186037;28;20042;-70
2024/01/21 19:38:08;;;;;;;17.55;14.18;;;;;;;3.90;100.00;101505.75;10187485;28;20268;-69
2024/01/21 19:43:05;;;;;;;16.35;14.35;;;;;;;3.87;100.00;101494.59;10184809;28;20038;-69
2024/01/21 19:48:01;;;;;;;16.15;14.30;;;;;;;3.89;100.00;101484.34;10185420;28;20425;-70
2024/01/21 19:52:58;;;;;;;19.20;15.63;;;;;;;3.92;100.00;101475.72;10196695;28;20511;-72
2024/01/21 19:57:57;;;;;;;16.15;14.45;;;;;;;4.00;100.00;101478.78;10199251;28;20526;-71
2024/01/21 20:02:54;;;;;;;18.25;14.63;;;;;;;4.00;100.00;101462.56;10192506;28;20042;-69
2024/01/21 20:07:50;;;;;;;16.08;13.90;;;;;;;4.00;100.00;101446.31;10188528;28;20049;-70
2024/01/21 20:12:47;;;;;;;18.00;14.27;;;;;;;3.99;100.00;101444.69;10198002;28;20045;-71
2024/01/21 20:17:43;;;;;;;16.25;14.50;;;;;;;3.99;100.00;101431.16;10194549;28;20057;-70
2024/01/21 20:22:41;;;;;;;16.70;13.32;;;;;;;4.04;100.00;101418.72;10190056;28;20042;-70
2024/01/21 20:27:39;;;;;;;16.80;14.32;;;;;;;4.00;100.00;101413.03;10194345;28;20278;-71
2024/01/21 20:32:36;;;;;;;15.48;13.88;;;;;;;4.06;100.00;101422.00;10194857;28;20044;-71
2024/01/21 20:37:34;;;;;;;18.17;13.98;;;;;;;4.06;100.00;101405.75;10200112;28;20053;-72
2024/01/21 20:42:30;;;;;;;16.45;14.68;;;;;;;3.97;100.00;101400.84;10192660;28;20138;-73
2024/01/21 20:47:27;;;;;;;14.50;13.07;;;;;;;3.95;100.00;101377.81;10195691;28;20521;-72
2024/01/21 20:52:24;;;;;;;19.52;15.27;;;;;;;3.91;100.00;101377.50;10187505;28;20421;-71
2024/01/21 20:57:21;;;;;;;15.80;14.30;;;;;;;3.83;100.00;101332.00;10185059;28;20045;-72
2024/01/21 21:02:18;;;;;;;15.93;14.23;;;;;;;3.83;100.00;101299.53;10182378;28;20045;-70
2024/01/21 21:07:14;;;;;;;18.90;14.48;;;;;;;3.73;100.00;101291.31;10190580;28;20049;-71
2024/01/21 21:12:11;;;;;;;20.05;15.15;;;;;;;3.65;100.00;101270.19;10194082;28;20521;-70
2024/01/21 21:17:07;;;;;;;17.27;15.48;;;;;;;3.63;100.00;101288.53;10189376;28;20088;-69
2024/01/21 21:22:04;;;;;;;16.67;14.10;;;;;;;3.64;100.00;101263.94;10190466;28;20419;-69
2024/01/21 21:27:00;;;;;;;17.92;14.85;;;;;;;3.66;100.00;101255.56;10190789;28;20505;-70
2024/01/21 21:31:57;;;;;;;16.90;14.63;;;;;;;3.65;100.00;101264.75;10202355;28;20042;-70
2024/01/21 21:36:53;;;;;;;18.25;14.80;;;;;;;3.70;100.00;101243.16;10180658;28;20050;-69
2024/01/21 21:41:50;;;;;;;17.83;14.05;;;;;;;3.76;100.00;101224.00;10188586;28;20057;-69
2024/01/21 21:46:47;;;;;;;14.80;13.20;;;;;;;3.73;100.00;101227.22;10186905;28;20042;-69
2024/01/21 21:51:45;;;;;;;15.45;13.10;;;;;;;3.76;100.00;101206.94;10198752;28;20045;-67
2024/01/21 21:56:42;;;;;;;18.27;13.75;;;;;;;3.69;100.00;101184.72;10191961;28;20138;-69
2024/01/21 22:01:39;;;;;;;15.25;13.68;;;;;;;3.73;100.00;101175.03;10192672;28;20422;-68
2024/01/21 22:06:36;;;;;;;16.85;13.57;;;;;;;3.72;100.00;101162.59;10191671;28;20497;-68
2024/01/21 22:11:32;;;;;;;14.32;12.65;;;;;;;3.76;100.00;101163.66;10192509;28;20104;-69
2024/01/21 22:16:29;;;;;;;20.05;14.25;;;;;;;3.75;100.00;101145.81;10189575;28;20069;-69
2024/01/21 22:21:25;;;;;;;21.50;14.45;;;;;;;3.77;100.00;101105.81;10191849;28;20050;-70
2024/01/21 22:26:22;;;;;;;16.08;13.23;;;;;;;3.86;100.00;101098.03;10190243;28;20046;-69
2024/01/21 22:31:19;;;;;;;20.80;15.45;;;;;;;3.91;100.00;101096.13;10192274;28;20046;-68
2024/01/21 22:36:15;;;;;;;17.90;13.02;;;;;;;3.98;100.00;101096.72;10182240;28;20494;-68
2024/01/21 22:41:12;;;;;;;15.55;12.95;;;;;;;4.04;100.00;101121.06;10186686;28;20092;-69